createdAt,value
2022-09-24T00:01:23.607Z,9.48
2022-09-24T00:03:57.523Z,9.18
2022-09-24T00:06:24.180Z,8.77
2022-09-24T00:08:52.055Z,11.63
2022-09-24T00:11:21.536Z,7.28
2022-09-24T00:13:49.198Z,7.38
2022-09-24T00:16:16.222Z,10.25
2022-09-24T00:18:42.677Z,7.95
2022-09-24T00:21:11.999Z,7.88
2022-09-24T00:23:38.289Z,7.32
2022-09-24T00:26:23.328Z,11.55
2022-09-24T00:28:50.582Z,7.63
2022-09-24T00:31:17.071Z,6.50
2022-09-24T00:33:43.424Z,8.95
2022-09-24T00:36:09.913Z,8.10
2022-09-24T00:38:36.198Z,6.95
2022-09-24T00:41:03.251Z,6.20
2022-09-24T00:43:31.034Z,8.52
2022-09-24T00:46:03.619Z,5.13
2022-09-24T00:48:30.218Z,5.40
2022-09-24T00:50:56.665Z,8.35
2022-09-24T00:53:23.933Z,6.55
2022-09-24T00:55:54.121Z,5.47
2022-09-24T00:58:21.459Z,9.32
2022-09-24T01:00:48.230Z,8.93
2022-09-24T01:03:16.830Z,6.68
2022-09-24T01:05:43.134Z,7.18
2022-09-24T01:08:13.681Z,7.57
2022-09-24T01:10:49.306Z,8.95
2022-09-24T01:13:24.093Z,8.07
2022-09-24T01:15:59.408Z,7.28
2022-09-24T01:18:48.974Z,5.82
2022-09-24T01:21:35.310Z,8.73
2022-09-24T01:24:17.374Z,6.05
2022-09-24T01:26:59.033Z,8.88
2022-09-24T01:29:31.959Z,8.93
2022-09-24T01:32:05.657Z,9.07
2022-09-24T01:34:36.402Z,7.50
2022-09-24T01:37:03.565Z,7.68
2022-09-24T01:39:31.210Z,8.65
2022-09-24T01:41:57.993Z,6.78
2022-09-24T01:44:25.107Z,6.20
2022-09-24T01:46:51.850Z,6.75
2022-09-24T01:49:18.153Z,7.25
2022-09-24T01:51:49.549Z,7.80
2022-09-24T01:54:34.590Z,7.80
2022-09-24T01:57:09.773Z,7.32
2022-09-24T01:59:37.806Z,8.02
2022-09-24T02:02:06.624Z,9.20
2022-09-24T02:04:35.727Z,8.55
2022-09-24T02:07:04.260Z,7.22
2022-09-24T02:09:48.974Z,8.00
2022-09-24T02:12:17.140Z,8.80
2022-09-24T02:14:46.057Z,7.00
2022-09-24T02:17:13.970Z,8.77
2022-09-24T02:19:41.095Z,6.82
2022-09-24T02:22:09.925Z,9.57
2022-09-24T02:24:41.643Z,8.27
2022-09-24T02:27:08.391Z,7.22
2022-09-24T02:29:35.770Z,6.80
2022-09-24T02:32:03.121Z,7.82
2022-09-24T02:34:32.118Z,8.70
2022-09-24T02:36:59.649Z,7.32
2022-09-24T02:39:26.470Z,8.18
2022-09-24T02:41:53.650Z,8.98
2022-09-24T02:44:20.382Z,7.20
2022-09-24T02:46:47.238Z,8.88
2022-09-24T02:49:14.408Z,6.95
2022-09-24T02:51:41.269Z,6.10
2022-09-24T02:54:07.743Z,8.32
2022-09-24T02:56:34.032Z,8.93
2022-09-24T02:59:02.357Z,7.07
2022-09-24T03:01:29.244Z,7.43
2022-09-24T03:03:55.571Z,10.05
2022-09-24T03:06:21.900Z,8.75
2022-09-24T03:08:48.206Z,9.68
2022-09-24T03:11:18.477Z,7.03
2022-09-24T03:13:45.235Z,6.97
2022-09-24T03:16:11.554Z,7.85
2022-09-24T03:18:38.130Z,9.20
2022-09-24T03:21:05.879Z,10.50
2022-09-24T03:23:35.236Z,5.93
2022-09-24T03:26:01.778Z,8.85
2022-09-24T03:28:28.302Z,7.63
2022-09-24T03:31:00.678Z,7.32
2022-09-24T03:33:27.110Z,8.57
2022-09-24T03:36:00.919Z,6.43
2022-09-24T03:38:28.024Z,7.55
2022-09-24T03:40:54.519Z,6.30
2022-09-24T03:43:20.926Z,15.23
2022-09-24T03:45:47.188Z,9.65
2022-09-24T03:48:13.525Z,6.53
2022-09-24T03:50:39.881Z,9.00
2022-09-24T03:53:06.243Z,6.10
2022-09-24T03:55:32.541Z,6.22
2022-09-24T03:57:58.880Z,9.23
2022-09-24T04:00:25.213Z,5.75
2022-09-24T04:02:51.737Z,7.25
2022-09-24T04:05:18.209Z,6.53
2022-09-24T04:07:44.856Z,6.82
2022-09-24T04:10:11.681Z,5.50
2022-09-24T04:12:37.937Z,6.45
2022-09-24T04:15:04.685Z,6.97
2022-09-24T04:17:33.924Z,6.28
2022-09-24T04:20:01.623Z,9.18
2022-09-24T04:22:28.991Z,8.00
2022-09-24T04:24:58.491Z,9.75
2022-09-24T04:27:24.772Z,8.98
2022-09-24T04:29:51.049Z,7.97
2022-09-24T04:32:17.355Z,7.10
2022-09-24T04:34:43.625Z,10.15
2022-09-24T04:37:10.062Z,7.53
2022-09-24T04:39:36.342Z,5.95
2022-09-24T04:42:02.607Z,6.10
2022-09-24T04:44:30.121Z,7.35
2022-09-24T04:47:02.163Z,7.88
2022-09-24T04:49:29.493Z,5.38
2022-09-24T04:51:58.029Z,6.15
2022-09-24T04:54:25.377Z,7.82
2022-09-24T04:56:51.645Z,5.65
2022-09-24T04:59:18.005Z,8.70
2022-09-24T05:01:44.353Z,7.15
2022-09-24T05:04:10.722Z,6.65
2022-09-24T05:06:37.006Z,8.07
2022-09-24T05:09:03.277Z,6.65
2022-09-24T05:11:29.646Z,6.03
2022-09-24T05:13:56.200Z,8.02
2022-09-24T05:16:22.666Z,6.43
2022-09-24T05:18:49.042Z,6.88
2022-09-24T05:21:15.634Z,8.38
2022-09-24T05:23:42.246Z,7.40
2022-09-24T05:26:27.312Z,7.03
2022-09-24T05:28:53.606Z,6.68
2022-09-24T05:31:20.177Z,11.88
2022-09-24T05:33:46.558Z,8.23
2022-09-24T05:36:12.833Z,6.07
2022-09-24T05:38:41.713Z,13.10
2022-09-24T05:41:08.328Z,6.35
2022-09-24T05:43:34.597Z,8.65
2022-09-24T05:46:00.997Z,10.65
2022-09-24T05:48:27.354Z,7.25
2022-09-24T05:50:55.348Z,9.55
2022-09-24T05:53:23.070Z,8.13
2022-09-24T05:55:49.379Z,5.53
2022-09-24T05:58:15.629Z,8.23
2022-09-24T06:00:42.366Z,8.50
2022-09-24T06:03:13.643Z,10.77
2022-09-24T06:05:43.488Z,13.93
2022-09-24T06:08:09.768Z,12.15
2022-09-24T06:10:36.111Z,12.07
2022-09-24T06:13:02.437Z,11.43
2022-09-24T06:15:29.093Z,11.35
2022-09-24T06:17:55.683Z,8.50
2022-09-24T06:20:24.991Z,7.63
2022-09-24T06:22:54.250Z,6.82
2022-09-24T06:25:20.542Z,6.82
2022-09-24T06:27:52.818Z,7.35
2022-09-24T06:30:19.098Z,8.23
2022-09-24T06:32:45.369Z,20.90
2022-09-24T06:35:11.654Z,28.98
2022-09-24T06:37:37.916Z,18.75
2022-09-24T06:40:04.536Z,15.10
2022-09-24T06:42:30.928Z,12.68
2022-09-24T06:44:57.189Z,10.45
2022-09-24T06:47:24.093Z,9.70
2022-09-24T06:49:50.390Z,13.52
2022-09-24T06:52:16.758Z,9.70
2022-09-24T06:54:43.052Z,6.00
2022-09-24T06:57:09.325Z,5.35
2022-09-24T06:59:35.594Z,6.88
2022-09-24T07:02:02.303Z,10.38
2022-09-24T07:04:28.622Z,8.27
2022-09-24T07:07:13.738Z,9.05
2022-09-24T07:09:41.332Z,6.10
2022-09-24T07:12:08.723Z,5.63
2022-09-24T07:14:35.019Z,5.15
2022-09-24T07:17:01.445Z,6.72
2022-09-24T07:19:27.737Z,5.57
2022-09-24T07:21:54.031Z,6.47
2022-09-24T07:24:20.294Z,5.68
2022-09-24T07:26:46.556Z,7.78
2022-09-24T07:29:12.847Z,9.05
2022-09-24T07:31:39.212Z,9.63
2022-09-24T07:34:11.586Z,7.32
2022-09-24T07:36:37.901Z,9.38
2022-09-24T07:39:04.940Z,9.30
2022-09-24T07:41:31.287Z,9.55
2022-09-24T07:43:57.589Z,9.35
2022-09-24T07:46:24.627Z,10.63
2022-09-24T07:48:57.722Z,11.98
2022-09-24T07:51:27.353Z,8.90
2022-09-24T07:53:54.509Z,12.27
2022-09-24T07:56:21.082Z,9.82
2022-09-24T07:58:51.162Z,7.82
2022-09-24T08:01:17.792Z,9.95
2022-09-24T08:03:44.638Z,9.13
2022-09-24T08:06:11.150Z,13.88
2022-09-24T08:08:38.883Z,8.10
2022-09-24T08:11:05.921Z,8.88
2022-09-24T08:13:33.002Z,12.30
2022-09-24T08:15:59.733Z,8.32
2022-09-24T08:18:26.461Z,8.43
2022-09-24T08:20:52.878Z,9.13
2022-09-24T08:23:20.591Z,7.60
2022-09-24T08:25:47.485Z,8.18
2022-09-24T08:28:16.869Z,7.70
2022-09-24T08:30:44.013Z,8.40
2022-09-24T08:33:10.472Z,9.30
2022-09-24T08:35:39.878Z,11.73
2022-09-24T08:38:06.517Z,9.45
2022-09-24T08:40:56.178Z,7.70
2022-09-24T08:43:25.523Z,11.27
2022-09-24T08:46:15.447Z,7.10
2022-09-24T08:48:44.987Z,9.23
2022-09-24T08:51:18.400Z,6.82
2022-09-24T08:56:11.467Z,8.32
2022-09-24T08:58:50.922Z,6.90
2022-09-24T09:01:24.661Z,9.32
2022-09-24T09:03:56.647Z,7.05
2022-09-24T09:06:39.448Z,9.80
2022-09-24T09:09:14.233Z,7.68
2022-09-24T09:11:43.489Z,7.40
2022-09-24T09:14:30.532Z,10.90
2022-09-24T09:17:15.160Z,8.55
2022-09-24T09:19:42.703Z,8.23
2022-09-24T09:22:16.241Z,9.23
2022-09-24T09:27:14.661Z,11.70
2022-09-24T09:29:41.907Z,9.63
2022-09-24T09:32:13.547Z,11.15
2022-09-24T09:34:48.157Z,10.05
2022-09-24T09:37:25.001Z,10.88
2022-09-24T09:40:11.122Z,11.88
2022-09-24T09:42:40.247Z,12.68
2022-09-24T09:45:26.926Z,12.10
2022-09-24T09:47:55.309Z,14.65
2022-09-24T09:50:39.303Z,9.27
2022-09-24T09:53:05.597Z,12.13
2022-09-24T09:55:36.242Z,10.75
2022-09-24T09:58:14.695Z,9.75
2022-09-24T10:00:41.332Z,11.55
2022-09-24T10:03:26.452Z,11.93
2022-09-24T10:06:00.375Z,11.43
2022-09-24T10:08:27.038Z,11.40
2022-09-24T10:10:55.284Z,12.88
2022-09-24T10:13:23.007Z,13.43
2022-09-24T10:15:50.938Z,12.52
2022-09-24T10:18:17.618Z,14.63
2022-09-24T10:20:48.200Z,10.68
2022-09-24T10:23:19.610Z,11.02
2022-09-24T10:25:51.028Z,9.30
2022-09-24T10:28:38.167Z,13.60
2022-09-24T10:31:11.777Z,9.52
2022-09-24T10:33:39.588Z,8.90
2022-09-24T10:36:15.009Z,8.77
2022-09-24T10:38:41.515Z,10.70
2022-09-24T10:41:34.145Z,9.32
2022-09-24T10:44:03.117Z,10.48
2022-09-24T10:46:48.283Z,8.50
2022-09-24T10:49:27.285Z,8.02
2022-09-24T10:52:10.068Z,12.13
2022-09-24T10:54:36.336Z,11.13
2022-09-24T10:57:08.858Z,9.45
2022-09-24T10:59:39.124Z,11.63
2022-09-24T11:02:17.694Z,8.90
2022-09-24T11:04:51.683Z,13.40
2022-09-24T11:07:24.156Z,9.90
2022-09-24T11:09:50.454Z,10.37
2022-09-24T11:12:25.785Z,8.52
2022-09-24T11:15:04.860Z,8.77
2022-09-24T11:17:37.029Z,10.40
2022-09-24T11:20:06.656Z,11.65
2022-09-24T11:22:35.950Z,9.50
2022-09-24T11:25:17.564Z,11.50
2022-09-24T11:27:53.690Z,11.13
2022-09-24T11:30:21.513Z,14.85
2022-09-24T11:32:53.860Z,11.25
2022-09-24T11:35:28.797Z,9.15
2022-09-24T11:37:59.742Z,11.27
2022-09-24T11:40:29.781Z,10.60
2022-09-24T11:43:04.921Z,9.23
2022-09-24T11:45:43.525Z,9.85
2022-09-24T11:48:16.092Z,9.02
2022-09-24T11:50:55.081Z,8.15
2022-09-24T11:53:31.036Z,8.05
2022-09-24T11:56:09.476Z,8.93
2022-09-24T11:58:43.777Z,10.40
2022-09-24T12:01:15.729Z,8.15
2022-09-24T12:03:44.229Z,10.63
2022-09-24T12:06:12.881Z,10.23
2022-09-24T12:08:42.034Z,10.45
2022-09-24T12:11:33.115Z,9.07
2022-09-24T12:14:03.200Z,7.57
2022-09-24T12:16:33.289Z,9.93
2022-09-24T12:19:28.724Z,10.10
2022-09-24T12:21:55.927Z,11.32
2022-09-24T12:24:36.004Z,8.20
2022-09-24T12:27:07.100Z,8.68
2022-09-24T12:30:11.120Z,8.02
2022-09-24T12:32:56.813Z,10.02
2022-09-24T12:35:39.611Z,10.02
2022-09-24T12:38:28.883Z,8.57
2022-09-24T12:40:58.230Z,8.45
2022-09-24T12:43:29.094Z,6.78
2022-09-24T12:45:58.704Z,7.68
2022-09-24T12:48:25.637Z,6.00
2022-09-24T12:50:59.691Z,6.22
2022-09-24T12:55:58.930Z,9.65
2022-09-24T12:58:28.215Z,8.23
2022-09-24T13:01:05.370Z,5.65
2022-09-24T13:03:36.441Z,5.72
2022-09-24T13:06:03.457Z,7.05
2022-09-24T13:08:36.880Z,6.43
2022-09-24T13:11:05.939Z,7.18
2022-09-24T13:13:36.687Z,9.80
2022-09-24T13:16:06.037Z,8.48
2022-09-24T13:18:34.327Z,13.52
2022-09-24T13:21:08.104Z,7.82
2022-09-24T13:23:37.673Z,8.60
2022-09-24T13:26:09.058Z,7.55
2022-09-24T13:28:51.257Z,7.20
2022-09-24T13:31:22.447Z,8.43
2022-09-24T13:33:54.801Z,8.57
2022-09-24T13:36:36.603Z,7.20
2022-09-24T13:39:12.270Z,8.85
2022-09-24T13:41:59.424Z,10.15
2022-09-24T13:44:39.321Z,7.68
2022-09-24T13:47:11.985Z,11.77
2022-09-24T13:49:41.469Z,9.20
2022-09-24T13:52:25.155Z,9.23
2022-09-24T13:54:53.443Z,9.07
2022-09-24T13:57:21.755Z,7.88
2022-09-24T13:59:48.040Z,6.55
2022-09-24T14:02:40.955Z,6.10
2022-09-24T14:05:09.067Z,7.70
2022-09-24T14:07:36.367Z,9.23
2022-09-24T14:10:04.685Z,8.93
2022-09-24T14:12:31.130Z,8.30
2022-09-24T14:14:58.196Z,9.13
2022-09-24T14:17:24.761Z,5.88
2022-09-24T14:19:55.324Z,5.95
2022-09-24T14:22:31.598Z,7.90
2022-09-24T14:25:07.725Z,6.70
2022-09-24T14:27:36.249Z,9.27
2022-09-24T14:30:04.543Z,7.10
2022-09-24T14:32:35.213Z,9.25
2022-09-24T14:35:24.641Z,6.32
2022-09-24T14:37:57.370Z,5.95
2022-09-24T14:40:24.034Z,5.72
2022-09-24T14:42:55.184Z,7.05
2022-09-24T14:45:23.777Z,5.55
2022-09-24T14:48:26.046Z,6.00
2022-09-24T14:50:52.285Z,6.75
2022-09-24T14:53:23.684Z,4.78
2022-09-24T14:55:50.052Z,6.18
2022-09-24T14:58:28.576Z,5.97
2022-09-24T15:00:57.354Z,5.22
2022-09-24T15:03:32.278Z,5.30
2022-09-24T15:06:02.912Z,6.95
2022-09-24T15:08:29.279Z,4.82
2022-09-24T15:11:00.431Z,7.78
2022-09-24T15:13:30.984Z,5.30
2022-09-24T15:16:21.187Z,7.80
2022-09-24T15:18:55.238Z,5.50
2022-09-24T15:21:21.760Z,7.45
2022-09-24T15:23:48.089Z,7.65
2022-09-24T15:26:14.524Z,4.90
2022-09-24T15:28:40.828Z,4.78
2022-09-24T15:31:07.168Z,6.43
2022-09-24T15:33:33.489Z,6.13
2022-09-24T15:35:59.822Z,9.25
2022-09-24T15:38:26.060Z,7.80
2022-09-24T15:40:53.755Z,7.13
2022-09-24T15:43:22.065Z,6.10
2022-09-24T15:45:48.861Z,8.48
2022-09-24T15:48:15.113Z,8.80
2022-09-24T15:50:41.978Z,12.48
2022-09-24T15:53:12.094Z,7.97
2022-09-24T15:55:38.412Z,9.48
2022-09-24T15:58:09.946Z,8.98
2022-09-24T16:00:36.276Z,8.07
2022-09-24T16:03:02.891Z,11.75
2022-09-24T16:05:29.566Z,10.95
2022-09-24T16:07:56.078Z,11.60
2022-09-24T16:10:22.350Z,10.68
2022-09-24T16:12:48.628Z,10.88
2022-09-24T16:15:15.790Z,11.70
2022-09-24T16:17:42.553Z,9.80
2022-09-24T16:20:09.930Z,9.55
2022-09-24T16:22:36.214Z,7.75
2022-09-24T16:25:02.645Z,10.88
2022-09-24T16:27:29.683Z,9.82
2022-09-24T16:29:55.988Z,9.80
2022-09-24T16:32:22.257Z,8.05
2022-09-24T16:34:48.523Z,9.45
2022-09-24T16:37:16.618Z,10.70
2022-09-24T16:39:42.927Z,7.75
2022-09-24T16:42:09.221Z,10.05
2022-09-24T16:44:35.527Z,9.18
2022-09-24T16:47:01.951Z,5.00
2022-09-24T16:49:29.427Z,6.05
2022-09-24T16:51:55.884Z,6.88
2022-09-24T16:54:22.901Z,7.80
2022-09-24T16:56:50.329Z,7.85
2022-09-24T16:59:16.725Z,8.38
2022-09-24T17:01:43.198Z,7.68
2022-09-24T17:04:09.568Z,6.63
2022-09-24T17:06:36.583Z,7.53
2022-09-24T17:09:21.501Z,6.55
2022-09-24T17:11:49.344Z,9.40
2022-09-24T17:14:16.431Z,9.35
2022-09-24T17:16:43.137Z,6.80
2022-09-24T17:19:10.273Z,7.50
2022-09-24T17:21:37.380Z,9.10
2022-09-24T17:24:03.821Z,9.75
2022-09-24T17:26:30.086Z,7.47
2022-09-24T17:28:56.374Z,10.07
2022-09-24T17:31:23.974Z,9.82
2022-09-24T17:34:00.583Z,11.43
2022-09-24T17:36:28.016Z,9.02
2022-09-24T17:38:56.135Z,12.55
2022-09-24T17:41:23.680Z,9.75
2022-09-24T17:43:50.029Z,8.43
2022-09-24T17:46:17.938Z,11.90
2022-09-24T17:48:45.678Z,12.98
2022-09-24T17:51:16.712Z,15.57
2022-09-24T17:53:43.104Z,13.30
2022-09-24T17:56:10.505Z,15.32
2022-09-24T17:58:37.945Z,13.07
2022-09-24T18:01:06.011Z,12.05
2022-09-24T18:03:32.398Z,9.93
2022-09-24T18:05:59.698Z,10.52
2022-09-24T18:08:26.014Z,8.02
2022-09-24T18:11:02.233Z,7.07
2022-09-24T18:13:28.543Z,7.38
2022-09-24T18:15:54.951Z,9.98
2022-09-24T18:18:21.345Z,10.40
2022-09-24T18:20:47.634Z,7.80
2022-09-24T18:23:13.904Z,10.20
2022-09-24T18:25:40.525Z,5.93
2022-09-24T18:28:06.807Z,6.22
2022-09-24T18:30:33.066Z,7.72
2022-09-24T18:32:59.330Z,6.18
2022-09-24T18:35:25.641Z,7.85
2022-09-24T18:37:51.908Z,5.85
2022-09-24T18:40:18.313Z,6.55
2022-09-24T18:42:44.675Z,7.65
2022-09-24T18:45:11.250Z,9.02
2022-09-24T18:47:40.479Z,8.45
2022-09-24T18:50:07.202Z,7.78
2022-09-24T18:52:33.768Z,9.00
2022-09-24T18:55:00.205Z,8.20
2022-09-24T18:57:26.474Z,7.68
2022-09-24T18:59:52.742Z,8.25
2022-09-24T19:02:20.245Z,8.15
2022-09-24T19:04:46.818Z,9.43
2022-09-24T19:07:13.173Z,8.50
2022-09-24T19:09:39.476Z,10.02
2022-09-24T19:12:07.819Z,11.00
2022-09-24T19:14:34.232Z,10.43
2022-09-24T19:17:02.863Z,11.05
2022-09-24T19:19:29.137Z,10.57
2022-09-24T19:21:56.589Z,7.65
2022-09-24T19:24:22.974Z,6.78
2022-09-24T19:26:49.813Z,10.52
2022-09-24T19:29:16.093Z,7.03
2022-09-24T19:31:45.009Z,8.15
2022-09-24T19:34:12.389Z,9.45
2022-09-24T19:36:43.842Z,8.43
2022-09-24T19:39:11.944Z,9.02
2022-09-24T19:41:38.329Z,10.05
2022-09-24T19:44:08.835Z,5.55
2022-09-24T19:46:36.725Z,4.80
2022-09-24T19:49:03.042Z,5.55
2022-09-24T19:51:30.800Z,7.45
2022-09-24T19:53:58.443Z,5.97
2022-09-24T19:56:25.374Z,4.80
2022-09-24T19:58:56.009Z,6.22
2022-09-24T20:01:23.795Z,6.00
2022-09-24T20:03:50.361Z,5.95
2022-09-24T20:06:18.194Z,5.25
2022-09-24T20:08:44.870Z,5.82
2022-09-24T20:11:14.882Z,6.05
2022-09-24T20:13:47.259Z,6.38
2022-09-24T20:16:20.984Z,7.53
2022-09-24T20:18:47.707Z,9.55
2022-09-24T20:21:17.639Z,10.50
2022-09-24T20:23:44.588Z,7.07
2022-09-24T20:26:30.612Z,7.07
2022-09-24T20:28:57.406Z,6.13
2022-09-24T20:31:24.003Z,6.38
2022-09-24T20:33:50.505Z,5.25
2022-09-24T20:36:20.740Z,5.75
2022-09-24T20:38:49.705Z,6.05
2022-09-24T20:41:20.093Z,5.13
2022-09-24T20:43:46.585Z,4.82
2022-09-24T20:46:16.151Z,6.20
2022-09-24T20:48:42.510Z,8.27
2022-09-24T20:51:13.235Z,5.18
2022-09-24T20:53:39.934Z,6.78
2022-09-24T20:56:06.320Z,4.57
2022-09-24T20:58:33.751Z,3.35
2022-09-24T21:01:00.624Z,3.40
2022-09-24T21:03:43.409Z,3.33
2022-09-24T21:06:15.261Z,3.70
2022-09-24T21:08:42.798Z,3.90
2022-09-24T21:11:13.596Z,3.83
2022-09-24T21:13:40.902Z,4.15
2022-09-24T21:16:07.665Z,3.30
2022-09-24T21:18:40.094Z,3.60
2022-09-24T21:21:08.352Z,3.55
2022-09-24T21:23:36.086Z,3.42
2022-09-24T21:26:15.993Z,4.13
2022-09-24T21:28:46.534Z,3.65
2022-09-24T21:31:13.817Z,5.25
2022-09-24T21:33:44.581Z,4.60
2022-09-24T21:36:11.817Z,4.10
2022-09-24T21:38:38.330Z,5.82
2022-09-24T21:41:08.238Z,4.18
2022-09-24T21:43:35.215Z,5.28
2022-09-24T21:46:06.377Z,6.95
2022-09-24T21:48:33.428Z,3.50
2022-09-24T21:51:04.327Z,3.78
2022-09-24T21:53:30.912Z,2.40
2022-09-24T21:55:57.258Z,5.15
2022-09-24T21:58:23.573Z,5.25
2022-09-24T22:00:49.889Z,2.70
2022-09-24T22:03:16.758Z,3.97
2022-09-24T22:05:43.693Z,2.80
2022-09-24T22:08:11.675Z,3.92
2022-09-24T22:10:38.854Z,3.40
2022-09-24T22:13:05.465Z,2.63
2022-09-24T22:15:32.178Z,3.10
2022-09-24T22:17:59.027Z,5.28
2022-09-24T22:20:25.341Z,4.63
2022-09-24T22:22:51.608Z,4.57
2022-09-24T22:25:17.913Z,4.72
2022-09-24T22:27:44.206Z,6.18
2022-09-24T22:30:11.417Z,6.90
2022-09-24T22:32:37.809Z,7.20
2022-09-24T22:35:23.554Z,8.35
2022-09-24T22:37:51.037Z,7.90
2022-09-24T22:40:17.558Z,7.53
2022-09-24T22:42:43.854Z,7.18
2022-09-24T22:45:10.988Z,7.85
2022-09-24T22:47:37.279Z,7.43
2022-09-24T22:50:03.598Z,7.45
2022-09-24T22:52:29.942Z,5.38
2022-09-24T22:54:56.220Z,4.50
2022-09-24T22:57:22.503Z,4.95
2022-09-24T22:59:49.352Z,4.88
2022-09-24T23:02:15.611Z,4.25
2022-09-24T23:04:42.010Z,3.60
2022-09-24T23:07:08.362Z,4.72
2022-09-24T23:09:34.641Z,5.65
2022-09-24T23:12:01.009Z,3.78
2022-09-24T23:14:27.282Z,3.65
2022-09-24T23:16:53.945Z,4.07
2022-09-24T23:19:20.269Z,3.70
2022-09-24T23:21:47.157Z,5.20
2022-09-24T23:24:15.246Z,7.50
2022-09-24T23:26:41.653Z,6.40
2022-09-24T23:29:08.749Z,4.20
2022-09-24T23:31:36.878Z,4.10
2022-09-24T23:34:03.854Z,4.53
2022-09-24T23:36:31.273Z,4.90
2022-09-24T23:38:58.389Z,6.30
2022-09-24T23:41:24.799Z,5.93
2022-09-24T23:43:51.086Z,4.88
2022-09-24T23:46:17.480Z,6.03
2022-09-24T23:48:43.988Z,5.13
2022-09-24T23:51:10.485Z,8.20
2022-09-24T23:53:37.401Z,5.38
2022-09-24T23:56:04.798Z,6.57
2022-09-24T23:58:31.132Z,5.20
